KBTL/BTL METAR and TAF weather

Enter ICAO airport designator
Station Type Date Time Source
KBTL METAR 2019/12/10 03:10 UTC NOAA

KBTL 100310Z 28021G33KT 10SM SCT009 OVC015 03/01 A2957 RMK AO2 PK WND 27034/0258 T00330011


Station Type Date Time Source
KBTL Decoded METAR 2019/12/10 03:10 UTC NOAA

W.K.KELLOGG REGIONAL AIRPORT, MI, United States (KBTL) 42-18N 085-15W 290M
Dec 09, 2019 - 10:10 PM EST / 2019.12.10 0310 UTC
Wind: from the W (280 degrees) at 24 MPH (21 KT) gusting to 38 MPH (33 KT):0
Visibility: 10 mile(s):0
Sky conditions: overcast
Temperature: 37.9 F (3.3 C)
Dew Point: 34.0 F (1.1 C)
Relative Humidity: 85%
Pressure (altimeter): 29.57 in. Hg (1001 hPa)
ob: KBTL 100310Z 28021G33KT 10SM SCT009 OVC015 03/01 A2957 RMK AO2 PK WND 27034/0258 T00330011
cycle: 3

Station Type Date Time Source
KBTL TAF 2019/12/10 03:48 UTC NOAA

TAF
AMD KBTL 100245Z 1003/1024 26025G36KT P6SM -SHRA OVC009
FM100400 27020G30KT 5SM -SHSN BR OVC015
FM100600 28014G24KT 2SM -SHSN OVC015
FM100900 28012G22KT 6SM -SHSN OVC025

Example: see airport list